createdAt,value
2022-08-07T00:00:44.990Z,23.19
2022-08-07T00:03:47.422Z,23.34
2022-08-07T00:06:14.818Z,23.21
2022-08-07T00:08:44.326Z,23.22
2022-08-07T00:11:11.282Z,23.24
2022-08-07T00:13:44.748Z,23.17
2022-08-07T00:16:12.401Z,22.88
2022-08-07T00:18:50.996Z,22.93
2022-08-07T00:21:56.078Z,23.32
2022-08-07T00:24:04.540Z,23.30
2022-08-07T00:26:59.452Z,23.12
2022-08-07T00:29:25.865Z,23.19
2022-08-07T00:32:01.979Z,23.24
2022-08-07T00:34:55.423Z,23.19
2022-08-07T00:37:48.379Z,23.39
2022-08-07T00:40:40.079Z,23.33
2022-08-07T00:43:10.799Z,23.55
2022-08-07T00:45:56.347Z,23.54
2022-08-07T00:48:25.043Z,23.60
2022-08-07T00:50:58.982Z,23.32
2022-08-07T00:53:38.903Z,23.49
2022-08-07T00:56:17.157Z,23.42
2022-08-07T00:58:46.980Z,23.28
2022-08-07T01:01:17.914Z,22.94
2022-08-07T01:03:55.394Z,23.42
2022-08-07T01:06:24.839Z,23.45
2022-08-07T01:10:05.060Z,23.74
2022-08-07T01:12:53.343Z,23.80
2022-08-07T01:15:22.271Z,23.97
2022-08-07T01:18:03.267Z,23.83
2022-08-07T01:20:35.339Z,23.96
2022-08-07T01:23:12.157Z,23.98
2022-08-07T01:25:55.605Z,23.76
2022-08-07T01:28:32.899Z,23.96
2022-08-07T01:31:01.562Z,23.70
2022-08-07T01:33:55.662Z,23.56
2022-08-07T01:36:16.986Z,23.92
2022-08-07T01:38:44.167Z,23.71
2022-08-07T01:41:12.178Z,23.73
2022-08-07T01:44:24.495Z,23.80
2022-08-07T01:48:17.722Z,23.77
2022-08-07T01:50:05.290Z,23.99
2022-08-07T01:52:34.448Z,23.83
2022-08-07T01:55:03.870Z,24.12
2022-08-07T01:58:06.005Z,24.09
2022-08-07T02:00:29.386Z,24.07
2022-08-07T02:03:18.324Z,24.15
2022-08-07T02:05:59.997Z,23.90
2022-08-07T02:08:29.429Z,23.91
2022-08-07T02:10:59.504Z,24.17
2022-08-07T02:13:56.906Z,23.79
2022-08-07T02:16:19.934Z,23.81
2022-08-07T02:20:06.650Z,23.83
2022-08-07T02:22:20.149Z,23.86
2022-08-07T02:24:50.322Z,23.84
2022-08-07T02:27:20.697Z,23.89
2022-08-07T02:29:54.661Z,23.83
2022-08-07T02:32:29.807Z,23.97
2022-08-07T02:34:58.708Z,23.94
2022-08-07T02:37:44.186Z,24.15
2022-08-07T02:40:30.179Z,24.05
2022-08-07T02:42:58.955Z,23.99
2022-08-07T02:45:59.325Z,24.06
2022-08-07T02:48:15.658Z,23.99
2022-08-07T02:50:44.835Z,24.16
2022-08-07T02:56:31.476Z,23.99
2022-08-07T02:59:02.184Z,24.11
2022-08-07T03:01:36.455Z,23.73
2022-08-07T03:04:12.437Z,23.88
2022-08-07T03:06:42.112Z,24.22
2022-08-07T03:09:11.967Z,24.04
2022-08-07T03:11:57.925Z,23.76
2022-08-07T03:14:29.645Z,24.05
2022-08-07T03:16:57.206Z,23.77
2022-08-07T03:19:28.983Z,23.94
2022-08-07T03:22:05.576Z,23.89
2022-08-07T03:24:33.126Z,24.08
2022-08-07T03:27:30.826Z,23.95
2022-08-07T03:30:33.910Z,23.77
2022-08-07T03:33:10.918Z,23.96
2022-08-07T03:35:50.267Z,24.08
2022-08-07T03:38:20.905Z,24.10
2022-08-07T03:40:57.220Z,23.85
2022-08-07T03:43:26.496Z,24.16
2022-08-07T03:46:10.476Z,23.99
2022-08-07T03:49:02.098Z,23.95
2022-08-07T03:51:47.927Z,24.21
2022-08-07T03:54:36.255Z,24.24
2022-08-07T03:57:07.603Z,24.33
2022-08-07T03:59:34.652Z,24.36
2022-08-07T04:02:20.026Z,24.42
2022-08-07T04:05:40.940Z,24.50
2022-08-07T04:08:16.315Z,24.43
2022-08-07T04:10:54.275Z,24.56
2022-08-07T04:14:10.294Z,24.55
2022-08-07T04:16:31.039Z,24.74
2022-08-07T04:19:03.918Z,24.72
2022-08-07T04:21:37.104Z,24.76
2022-08-07T04:24:10.421Z,24.61
2022-08-07T04:26:58.093Z,24.44
2022-08-07T04:29:24.715Z,24.44
2022-08-07T04:32:09.624Z,24.47
2022-08-07T04:34:37.729Z,24.38
2022-08-07T04:38:05.473Z,24.45
2022-08-07T04:41:01.025Z,24.31
2022-08-07T04:44:09.846Z,24.41
2022-08-07T04:46:59.280Z,24.29
2022-08-07T04:49:47.332Z,24.38
2022-08-07T04:53:07.454Z,24.52
2022-08-07T04:58:15.330Z,24.55
2022-08-07T05:00:12.875Z,24.38
2022-08-07T05:02:16.935Z,24.25
2022-08-07T05:05:52.859Z,24.32
2022-08-07T05:08:59.307Z,24.28
2022-08-07T05:11:58.532Z,24.32
2022-08-07T05:15:23.530Z,24.22
2022-08-07T05:17:56.663Z,24.14
2022-08-07T05:20:30.827Z,24.56
2022-08-07T05:23:02.173Z,24.05
2022-08-07T05:26:10.198Z,24.05
2022-08-07T05:28:23.046Z,23.99
2022-08-07T05:30:56.931Z,23.82
2022-08-07T05:33:23.776Z,22.61
2022-08-07T05:35:53.591Z,23.02
2022-08-07T05:39:00.495Z,22.62
2022-08-07T05:41:14.465Z,22.16
2022-08-07T05:44:01.246Z,22.13
2022-08-07T05:46:44.340Z,21.92
2022-08-07T05:49:18.335Z,21.79
2022-08-07T05:51:46.587Z,21.71
2022-08-07T05:54:30.707Z,21.76
2022-08-07T05:57:03.506Z,21.90
2022-08-07T05:59:47.294Z,21.39
2022-08-07T06:02:28.810Z,21.60
2022-08-07T06:05:15.403Z,21.57
2022-08-07T06:08:13.406Z,21.58
2022-08-07T06:13:00.489Z,21.87
2022-08-07T06:15:42.008Z,22.11
2022-08-07T06:18:14.033Z,22.28
2022-08-07T06:22:14.426Z,22.31
2022-08-07T06:24:38.390Z,22.50
2022-08-07T06:26:42.534Z,22.61
2022-08-07T06:29:10.022Z,22.65
2022-08-07T06:31:46.692Z,22.81
2022-08-07T06:34:20.644Z,22.76
2022-08-07T06:36:47.802Z,22.00
2022-08-07T06:40:16.903Z,22.49
2022-08-07T06:42:17.817Z,22.75
2022-08-07T06:44:51.145Z,22.79
2022-08-07T06:47:19.318Z,22.60
2022-08-07T06:49:52.152Z,22.76
2022-08-07T06:52:31.241Z,22.28
2022-08-07T06:56:01.591Z,22.47
2022-08-07T07:00:13.121Z,22.18
2022-08-07T07:01:48.682Z,22.66
2022-08-07T07:04:32.588Z,22.46
2022-08-07T07:07:02.293Z,22.60
2022-08-07T07:09:31.426Z,22.90
2022-08-07T07:12:09.035Z,22.90
2022-08-07T07:15:26.089Z,22.77
2022-08-07T07:18:43.087Z,22.88
2022-08-07T07:22:05.309Z,22.97
2022-08-07T07:24:24.906Z,22.86
2022-08-07T07:26:54.493Z,22.50
2022-08-07T07:30:09.939Z,22.57
2022-08-07T07:33:04.999Z,22.33
2022-08-07T07:35:44.145Z,22.67
2022-08-07T07:38:25.937Z,22.88
2022-08-07T07:41:02.349Z,22.63
2022-08-07T07:44:14.344Z,23.06
2022-08-07T07:46:37.489Z,23.18
2022-08-07T07:50:33.336Z,23.33
2022-08-07T07:52:03.400Z,23.34
2022-08-07T07:54:31.911Z,23.26
2022-08-07T07:57:01.669Z,23.13
2022-08-07T07:59:51.658Z,23.12
2022-08-07T08:02:22.565Z,22.92
2022-08-07T08:05:22.356Z,23.03
2022-08-07T08:08:32.411Z,23.14
2022-08-07T08:11:01.621Z,23.54
2022-08-07T08:13:33.195Z,23.63
2022-08-07T08:16:05.746Z,23.56
2022-08-07T08:18:35.226Z,23.89
2022-08-07T08:21:03.381Z,23.64
2022-08-07T08:23:54.402Z,23.62
2022-08-07T08:26:40.834Z,23.70
2022-08-07T08:29:08.824Z,23.58
2022-08-07T08:32:17.353Z,23.88
2022-08-07T08:34:29.154Z,23.92
2022-08-07T08:37:02.847Z,24.09
2022-08-07T08:39:58.373Z,23.84
2022-08-07T08:42:55.128Z,23.97
2022-08-07T08:45:41.591Z,24.08
2022-08-07T08:48:44.553Z,24.32
2022-08-07T08:51:26.277Z,24.21
2022-08-07T08:54:15.945Z,24.64
2022-08-07T08:57:12.253Z,24.48
2022-08-07T09:00:07.139Z,24.45
2022-08-07T09:02:40.478Z,24.92
2022-08-07T09:05:32.319Z,24.50
2022-08-07T09:08:24.238Z,25.02
2022-08-07T09:11:24.948Z,24.78
2022-08-07T09:18:36.828Z,24.91
2022-08-07T09:21:33.859Z,25.44
2022-08-07T09:24:35.029Z,25.29
2022-08-07T09:27:19.887Z,25.64
2022-08-07T09:30:06.000Z,25.07
2022-08-07T09:33:52.846Z,25.68
2022-08-07T09:36:35.350Z,25.47
2022-08-07T09:39:54.570Z,25.98
2022-08-07T09:42:51.343Z,25.47
2022-08-07T09:56:34.036Z,26.09
2022-08-07T09:59:07.557Z,25.99
2022-08-07T10:01:57.769Z,26.85
2022-08-07T10:04:32.594Z,27.07
2022-08-07T10:07:39.732Z,27.22
2022-08-07T10:10:30.683Z,27.01
2022-08-07T10:13:10.973Z,27.75
2022-08-07T10:16:00.550Z,28.00
2022-08-07T10:18:51.160Z,28.10
2022-08-07T10:25:45.166Z,27.99
2022-08-07T10:42:01.692Z,28.60
2022-08-07T10:44:59.186Z,28.83
2022-08-07T10:47:52.722Z,29.21
2022-08-07T10:50:50.123Z,29.19
2022-08-07T10:53:28.491Z,29.44
2022-08-07T10:57:07.311Z,29.17
2022-08-07T11:00:36.686Z,29.14
2022-08-07T11:03:52.507Z,28.96
2022-08-07T11:11:46.110Z,29.06
2022-08-07T11:14:44.756Z,29.08
2022-08-07T11:17:43.373Z,29.68
2022-08-07T11:20:24.323Z,29.95
2022-08-07T11:23:38.490Z,29.98
2022-08-07T11:26:23.361Z,30.17
2022-08-07T11:29:43.006Z,30.44
2022-08-07T11:37:57.790Z,29.32
2022-08-07T11:40:49.515Z,30.05
2022-08-07T11:44:11.823Z,30.10
2022-08-07T11:46:56.967Z,30.35
2022-08-07T11:50:31.948Z,30.50
2022-08-07T11:53:16.964Z,30.49
2022-08-07T11:56:27.344Z,30.32
2022-08-07T11:59:00.637Z,30.37
2022-08-07T12:02:02.888Z,30.70
2022-08-07T12:05:28.310Z,30.65
2022-08-07T12:12:09.611Z,31.01
2022-08-07T12:14:42.467Z,30.45
2022-08-07T12:17:19.795Z,30.08
2022-08-07T12:19:56.755Z,30.28
2022-08-07T12:22:47.355Z,30.12
2022-08-07T12:26:29.104Z,30.12
2022-08-07T12:29:07.398Z,30.65
2022-08-07T12:32:04.146Z,29.83
2022-08-07T12:34:36.054Z,30.50
2022-08-07T12:37:08.787Z,30.69
2022-08-07T12:39:55.538Z,30.88
2022-08-07T12:43:10.796Z,30.72
2022-08-07T12:46:26.326Z,30.58
2022-08-07T12:49:39.729Z,30.45
2022-08-07T12:52:28.901Z,30.57
2022-08-07T12:55:40.651Z,30.32
2022-08-07T12:58:09.964Z,30.53
2022-08-07T13:01:17.262Z,30.87
2022-08-07T13:04:02.293Z,30.49
2022-08-07T13:07:00.909Z,30.92
2022-08-07T13:10:37.734Z,30.99
2022-08-07T13:13:07.255Z,30.82
2022-08-07T13:19:50.763Z,30.89
2022-08-07T13:22:31.392Z,30.71
2022-08-07T13:25:15.388Z,30.84
2022-08-07T13:28:11.078Z,31.21
2022-08-07T13:30:52.209Z,31.32
2022-08-07T13:34:32.787Z,30.73
2022-08-07T13:36:57.831Z,30.92
2022-08-07T13:40:34.346Z,30.83
2022-08-07T13:42:24.918Z,30.64
2022-08-07T13:45:20.516Z,30.88
2022-08-07T13:48:06.538Z,30.51
2022-08-07T13:51:26.810Z,30.66
2022-08-07T13:54:29.105Z,30.77
2022-08-07T13:57:03.269Z,30.83
2022-08-07T13:59:34.660Z,30.99
2022-08-07T14:02:13.281Z,30.61
2022-08-07T14:04:54.370Z,30.50
2022-08-07T14:07:24.475Z,30.66
2022-08-07T14:10:17.822Z,30.66
2022-08-07T14:12:58.555Z,31.24
2022-08-07T14:15:28.269Z,31.45
2022-08-07T14:18:31.791Z,31.42
2022-08-07T14:22:02.595Z,31.38
2022-08-07T14:24:52.019Z,30.75
2022-08-07T14:28:12.781Z,30.84
2022-08-07T14:30:36.614Z,30.99
2022-08-07T14:33:09.118Z,31.30
2022-08-07T14:35:44.607Z,31.50
2022-08-07T14:38:26.195Z,31.32
2022-08-07T14:41:03.803Z,31.24
2022-08-07T14:43:57.911Z,31.30
2022-08-07T14:46:33.332Z,31.40
2022-08-07T14:49:56.170Z,31.23
2022-08-07T14:52:04.890Z,31.47
2022-08-07T14:54:41.994Z,31.34
2022-08-07T14:57:19.078Z,31.50
2022-08-07T15:03:19.312Z,31.43
2022-08-07T15:05:55.071Z,31.37
2022-08-07T15:17:55.560Z,31.69
2022-08-07T15:20:33.265Z,31.54
2022-08-07T15:23:20.633Z,30.50
2022-08-07T15:25:59.641Z,31.17
2022-08-07T15:28:34.962Z,31.42
2022-08-07T15:31:11.096Z,30.70
2022-08-07T15:34:50.779Z,31.16
2022-08-07T15:40:38.000Z,30.54
2022-08-07T15:43:53.053Z,30.61
2022-08-07T15:46:37.639Z,31.06
2022-08-07T15:49:14.792Z,30.91
2022-08-07T15:52:03.214Z,30.84
2022-08-07T15:54:39.228Z,31.34
2022-08-07T15:57:10.739Z,31.29
2022-08-07T15:59:56.759Z,31.23
2022-08-07T16:02:29.690Z,30.91
2022-08-07T16:05:04.451Z,30.57
2022-08-07T16:12:12.231Z,30.30
2022-08-07T16:14:50.687Z,30.61
2022-08-07T16:18:02.338Z,30.78
2022-08-07T16:21:43.655Z,30.76
2022-08-07T16:24:33.950Z,30.81
2022-08-07T16:27:40.524Z,30.45
2022-08-07T16:30:30.131Z,30.82
2022-08-07T16:34:03.355Z,30.95
2022-08-07T16:36:20.674Z,30.99
2022-08-07T16:39:40.493Z,31.11
2022-08-07T16:50:52.833Z,30.83
2022-08-07T16:54:02.197Z,30.96
2022-08-07T16:56:44.811Z,30.76
2022-08-07T16:59:46.759Z,30.92
2022-08-07T17:02:53.251Z,31.14
2022-08-07T17:06:28.176Z,31.15
2022-08-07T17:09:14.130Z,31.10
2022-08-07T17:12:04.115Z,31.15
2022-08-07T17:14:54.177Z,31.09
2022-08-07T17:18:24.142Z,31.16
2022-08-07T17:21:22.668Z,31.20
2022-08-07T17:24:01.887Z,30.88
2022-08-07T17:26:49.757Z,31.02
2022-08-07T17:30:14.764Z,31.02
2022-08-07T17:32:39.841Z,30.96
2022-08-07T17:35:54.941Z,30.97
2022-08-07T17:38:34.250Z,30.93
2022-08-07T17:42:02.409Z,30.94
2022-08-07T17:44:41.583Z,30.83
2022-08-07T17:47:38.346Z,30.82
2022-08-07T17:50:19.299Z,30.61
2022-08-07T17:53:00.567Z,30.68
2022-08-07T17:56:00.785Z,30.55
2022-08-07T17:58:39.744Z,30.62
2022-08-07T18:01:51.681Z,30.46
2022-08-07T18:04:48.684Z,30.63
2022-08-07T18:07:34.154Z,30.61
2022-08-07T18:10:32.377Z,30.57
2022-08-07T18:12:59.763Z,30.37
2022-08-07T18:15:33.008Z,30.40
2022-08-07T18:18:46.908Z,30.20
2022-08-07T18:21:37.404Z,30.26
2022-08-07T18:24:34.683Z,30.36
2022-08-07T18:27:51.979Z,30.43
2022-08-07T18:31:07.498Z,30.48
2022-08-07T18:33:59.698Z,30.22
2022-08-07T18:36:33.734Z,29.39
2022-08-07T18:40:08.271Z,29.78
2022-08-07T18:42:20.919Z,29.77
2022-08-07T18:45:42.966Z,30.09
2022-08-07T18:49:23.853Z,29.52
2022-08-07T18:55:42.626Z,28.93
2022-08-07T18:57:59.418Z,28.86
2022-08-07T19:04:56.130Z,29.24
2022-08-07T19:07:35.533Z,28.91
2022-08-07T19:10:10.925Z,28.58
2022-08-07T19:12:48.974Z,28.97
2022-08-07T19:16:04.215Z,28.55
2022-08-07T19:18:45.000Z,27.90
2022-08-07T19:21:47.899Z,27.95
2022-08-07T19:24:44.677Z,28.35
2022-08-07T19:28:28.677Z,28.44
2022-08-07T19:31:04.457Z,28.32
2022-08-07T19:32:59.879Z,28.26
2022-08-07T19:36:02.210Z,28.56
2022-08-07T19:38:52.879Z,28.36
2022-08-07T19:41:44.370Z,28.07
2022-08-07T19:44:21.933Z,28.22
2022-08-07T19:46:55.895Z,28.55
2022-08-07T19:49:57.823Z,28.33
2022-08-07T19:52:18.558Z,28.40
2022-08-07T19:54:58.349Z,28.27
2022-08-07T19:58:02.615Z,28.04
2022-08-07T20:00:28.851Z,27.30
2022-08-07T20:03:02.023Z,27.68
2022-08-07T20:06:00.019Z,27.83
2022-08-07T20:08:27.156Z,27.96
2022-08-07T20:12:23.395Z,26.89
2022-08-07T20:20:08.553Z,26.93
2022-08-07T20:28:38.509Z,27.27
2022-08-07T20:31:21.398Z,27.45
2022-08-07T20:33:56.528Z,27.58
2022-08-07T20:36:27.180Z,27.77
2022-08-07T20:39:00.471Z,27.74
2022-08-07T20:41:38.100Z,27.20
2022-08-07T20:44:49.577Z,27.51
2022-08-07T20:48:05.555Z,27.52
2022-08-07T20:50:33.292Z,27.36
2022-08-07T20:53:00.583Z,27.60
2022-08-07T20:55:28.795Z,27.05
2022-08-07T20:58:04.216Z,26.71
2022-08-07T21:03:42.303Z,26.26
2022-08-07T21:06:25.859Z,26.63
2022-08-07T21:09:07.474Z,26.77
2022-08-07T21:11:50.041Z,27.05
2022-08-07T21:14:33.134Z,26.89
2022-08-07T21:18:03.912Z,26.85
2022-08-07T21:20:48.053Z,26.67
2022-08-07T21:23:50.260Z,26.76
2022-08-07T21:26:45.266Z,26.96
2022-08-07T21:29:18.226Z,27.00
2022-08-07T21:35:02.574Z,27.01
2022-08-07T21:37:58.224Z,27.11
2022-08-07T21:40:50.245Z,27.16
2022-08-07T21:43:47.131Z,27.12
2022-08-07T21:46:43.534Z,26.75
2022-08-07T21:49:28.794Z,25.91
2022-08-07T21:52:13.052Z,25.75
2022-08-07T21:55:43.237Z,24.88
2022-08-07T21:59:26.675Z,25.59
2022-08-07T22:02:13.222Z,25.92
2022-08-07T22:04:53.661Z,25.69
2022-08-07T22:07:20.910Z,25.68
2022-08-07T22:09:55.472Z,25.76
2022-08-07T22:13:00.886Z,25.47
2022-08-07T22:16:40.948Z,24.86
2022-08-07T22:18:32.598Z,24.58
2022-08-07T22:21:11.456Z,24.73
2022-08-07T22:23:47.403Z,24.61
2022-08-07T22:26:44.663Z,25.30
2022-08-07T22:30:12.520Z,24.52
2022-08-07T22:33:06.256Z,24.66
2022-08-07T22:35:42.233Z,25.07
2022-08-07T22:38:25.838Z,25.15
2022-08-07T22:41:16.337Z,24.75
2022-08-07T22:43:51.916Z,25.26
2022-08-07T22:47:04.239Z,25.47
2022-08-07T22:50:13.571Z,25.51
2022-08-07T22:53:18.794Z,25.01
2022-08-07T22:56:13.059Z,24.90
2022-08-07T22:59:07.443Z,25.11
2022-08-07T23:02:20.244Z,25.38
2022-08-07T23:08:54.491Z,25.74
2022-08-07T23:11:45.965Z,25.68
2022-08-07T23:14:33.931Z,25.65
2022-08-07T23:17:54.672Z,25.71
2022-08-07T23:21:17.473Z,25.62
2022-08-07T23:24:17.043Z,25.52
2022-08-07T23:26:50.309Z,25.28
2022-08-07T23:29:43.151Z,25.47
2022-08-07T23:34:22.882Z,25.52
2022-08-07T23:36:02.622Z,25.49
2022-08-07T23:44:29.477Z,25.46
2022-08-07T23:47:19.044Z,25.41
2022-08-07T23:50:01.402Z,25.32
2022-08-07T23:53:00.214Z,25.25
2022-08-07T23:56:14.189Z,25.12
2022-08-07T23:58:54.898Z,24.29
